createdAt,value
2022-10-22T00:00:36.948Z,15.73
2022-10-22T00:04:32.851Z,16.42
2022-10-22T00:08:07.216Z,18.23
2022-10-22T00:11:38.924Z,15.83
2022-10-22T00:15:11.383Z,16.97
2022-10-22T00:18:43.240Z,16.88
2022-10-22T00:22:15.186Z,16.35
2022-10-22T00:25:47.304Z,17.50
2022-10-22T00:29:20.088Z,17.20
2022-10-22T00:32:51.806Z,16.30
2022-10-22T00:36:23.648Z,15.85
2022-10-22T00:39:55.402Z,16.60
2022-10-22T00:43:27.427Z,16.30
2022-10-22T00:46:59.307Z,18.02
2022-10-22T00:50:39.098Z,15.75
2022-10-22T00:54:10.921Z,17.73
2022-10-22T00:57:43.246Z,15.23
2022-10-22T01:01:21.659Z,16.30
2022-10-22T01:04:53.988Z,17.30
2022-10-22T01:08:28.528Z,16.70
2022-10-22T01:12:20.629Z,15.87
2022-10-22T01:16:04.502Z,16.38
2022-10-22T01:20:01.369Z,15.75
2022-10-22T01:24:03.826Z,15.83
2022-10-22T01:28:11.349Z,15.57
2022-10-22T01:31:48.415Z,15.10
2022-10-22T01:35:27.492Z,16.83
2022-10-22T01:39:00.902Z,15.43
2022-10-22T01:42:33.055Z,16.08
2022-10-22T01:46:06.552Z,15.30
2022-10-22T01:50:04.737Z,14.55
2022-10-22T01:53:48.587Z,15.00
2022-10-22T01:57:44.406Z,14.27
2022-10-22T02:01:46.309Z,15.43
2022-10-22T02:05:27.382Z,16.23
2022-10-22T02:09:01.251Z,15.53
2022-10-22T02:12:34.938Z,15.23
2022-10-22T02:16:08.889Z,15.40
2022-10-22T02:19:56.946Z,18.00
2022-10-22T02:23:29.085Z,15.50
2022-10-22T02:27:25.948Z,15.05
2022-10-22T02:31:11.530Z,16.80
2022-10-22T02:34:44.927Z,17.40
2022-10-22T02:38:17.730Z,16.67
2022-10-22T02:41:49.662Z,17.95
2022-10-22T02:45:21.711Z,18.60
2022-10-22T02:48:53.664Z,19.07
2022-10-22T02:52:25.396Z,19.63
2022-10-22T02:55:57.480Z,19.40
2022-10-22T02:59:29.141Z,20.80
2022-10-22T03:03:00.959Z,21.53
2022-10-22T03:06:32.657Z,20.57
2022-10-22T03:10:05.351Z,20.67
2022-10-22T03:13:37.925Z,17.88
2022-10-22T03:17:10.092Z,20.17
2022-10-22T03:20:42.040Z,19.93
2022-10-22T03:24:18.824Z,19.77
2022-10-22T03:27:54.408Z,19.98
2022-10-22T03:31:26.435Z,20.03
2022-10-22T03:34:58.160Z,19.47
2022-10-22T03:38:30.684Z,18.55
2022-10-22T03:42:03.029Z,21.02
2022-10-22T03:45:34.943Z,19.60
2022-10-22T03:49:06.751Z,19.53
2022-10-22T03:52:40.009Z,19.58
2022-10-22T03:56:12.796Z,19.42
2022-10-22T03:59:46.280Z,20.13
2022-10-22T04:03:18.081Z,19.10
2022-10-22T04:06:49.950Z,20.10
2022-10-22T04:10:21.593Z,20.42
2022-10-22T04:13:53.428Z,20.37
2022-10-22T04:17:25.143Z,20.67
2022-10-22T04:20:57.003Z,20.48
2022-10-22T04:24:31.578Z,19.63
2022-10-22T04:28:03.433Z,18.53
2022-10-22T04:31:35.765Z,19.77
2022-10-22T04:35:08.012Z,19.17
2022-10-22T04:38:40.626Z,17.45
2022-10-22T04:42:12.700Z,18.10
2022-10-22T04:45:45.008Z,19.77
2022-10-22T04:49:17.015Z,18.10
2022-10-22T04:52:48.820Z,18.85
2022-10-22T04:56:24.977Z,19.40
2022-10-22T04:59:56.889Z,19.77
2022-10-22T05:03:28.743Z,22.10
2022-10-22T05:07:00.518Z,19.45
2022-10-22T05:10:32.345Z,19.33
2022-10-22T05:14:06.190Z,21.27
2022-10-22T05:17:38.702Z,20.70
2022-10-22T05:21:16.947Z,18.60
2022-10-22T05:24:49.174Z,18.40
2022-10-22T05:28:20.850Z,18.70
2022-10-22T05:31:53.364Z,18.23
2022-10-22T05:35:25.376Z,19.13
2022-10-22T05:38:57.879Z,18.37
2022-10-22T05:42:33.416Z,20.85
2022-10-22T05:46:07.821Z,19.38
2022-10-22T05:49:39.948Z,17.93
2022-10-22T05:53:12.335Z,17.90
2022-10-22T05:56:44.000Z,18.73
2022-10-22T06:00:16.883Z,17.92
2022-10-22T06:03:49.176Z,18.27
2022-10-22T06:07:21.174Z,18.40
2022-10-22T06:10:52.960Z,19.17
2022-10-22T06:14:26.054Z,18.67
2022-10-22T06:17:57.774Z,18.67
2022-10-22T06:21:31.129Z,17.53
2022-10-22T06:25:02.970Z,18.25
2022-10-22T06:28:37.672Z,18.05
2022-10-22T06:32:09.537Z,18.40
2022-10-22T06:35:41.497Z,18.87
2022-10-22T06:39:16.072Z,17.55
2022-10-22T06:42:47.940Z,18.10
2022-10-22T06:46:21.745Z,17.93
2022-10-22T06:49:53.998Z,18.67
2022-10-22T06:53:25.910Z,19.55
2022-10-22T06:56:58.064Z,18.70
2022-10-22T07:00:29.863Z,19.07
2022-10-22T07:04:02.211Z,19.33
2022-10-22T07:07:33.876Z,19.92
2022-10-22T07:11:12.258Z,20.15
2022-10-22T07:14:44.011Z,18.30
2022-10-22T07:18:15.823Z,16.90
2022-10-22T07:21:47.576Z,18.83
2022-10-22T07:25:19.522Z,18.17
2022-10-22T07:28:51.689Z,18.77
2022-10-22T07:32:24.015Z,20.20
2022-10-22T07:36:02.807Z,19.08
2022-10-22T07:39:34.781Z,18.13
2022-10-22T07:43:06.826Z,18.03
2022-10-22T07:46:38.731Z,16.23
2022-10-22T07:50:10.594Z,17.70
2022-10-22T07:53:45.998Z,18.05
2022-10-22T07:57:18.112Z,16.70
2022-10-22T08:00:51.587Z,18.00
2022-10-22T08:04:23.454Z,17.33
2022-10-22T08:07:55.407Z,16.70
2022-10-22T08:11:27.126Z,19.60
2022-10-22T08:15:00.843Z,18.43
2022-10-22T08:18:32.603Z,19.20
2022-10-22T08:22:04.611Z,17.75
2022-10-22T08:25:36.733Z,19.40
2022-10-22T08:29:08.891Z,17.23
2022-10-22T08:32:41.163Z,17.98
2022-10-22T08:36:13.186Z,17.83
2022-10-22T08:39:45.664Z,17.07
2022-10-22T08:43:42.832Z,17.07
2022-10-22T08:47:40.608Z,17.50
2022-10-22T08:51:20.348Z,16.55
2022-10-22T08:54:59.365Z,16.07
2022-10-22T08:58:44.257Z,15.20
2022-10-22T09:03:00.239Z,16.55
2022-10-22T09:06:35.415Z,17.73
2022-10-22T09:10:11.450Z,17.73
2022-10-22T09:13:45.848Z,17.10
2022-10-22T09:17:26.180Z,16.88
2022-10-22T09:21:16.728Z,14.52
2022-10-22T09:24:56.034Z,16.75
2022-10-22T09:28:30.424Z,15.53
2022-10-22T09:32:02.822Z,14.55
2022-10-22T09:35:46.194Z,14.85
2022-10-22T09:39:39.041Z,17.52
2022-10-22T09:43:14.896Z,15.67
2022-10-22T09:46:47.022Z,15.80
2022-10-22T09:50:21.901Z,14.98
2022-10-22T09:54:02.995Z,16.20
2022-10-22T09:57:37.898Z,15.23
2022-10-22T10:01:32.013Z,15.75
2022-10-22T10:05:04.766Z,14.90
2022-10-22T10:08:36.821Z,15.25
2022-10-22T10:12:39.113Z,16.00
2022-10-22T10:16:40.905Z,15.82
2022-10-22T10:20:31.341Z,19.25
2022-10-22T10:24:27.986Z,18.27
2022-10-22T10:28:14.803Z,13.57
2022-10-22T10:31:58.382Z,15.63
2022-10-22T10:35:42.162Z,17.60
2022-10-22T10:39:40.081Z,14.00
2022-10-22T10:43:49.926Z,14.97
2022-10-22T10:47:47.791Z,13.98
2022-10-22T10:51:44.004Z,14.18
2022-10-22T10:55:35.979Z,14.70
2022-10-22T10:59:35.292Z,13.53
2022-10-22T11:03:43.584Z,13.77
2022-10-22T11:07:30.398Z,14.13
2022-10-22T11:11:12.729Z,13.93
2022-10-22T11:14:59.482Z,13.37
2022-10-22T11:18:41.683Z,14.13
2022-10-22T11:22:26.810Z,13.98
2022-10-22T11:26:00.427Z,12.97
2022-10-22T11:29:42.936Z,13.63
2022-10-22T11:33:21.395Z,12.02
2022-10-22T11:36:54.555Z,12.02
2022-10-22T11:40:29.505Z,12.90
2022-10-22T11:44:07.519Z,13.80
2022-10-22T11:48:04.771Z,13.65
2022-10-22T11:51:38.760Z,14.48
2022-10-22T11:55:32.067Z,15.43
2022-10-22T11:59:04.137Z,16.30
2022-10-22T12:02:46.112Z,15.95
2022-10-22T12:06:26.300Z,13.98
2022-10-22T12:09:58.433Z,14.15
2022-10-22T12:13:52.522Z,15.00
2022-10-22T12:17:25.607Z,13.38
2022-10-22T12:20:58.314Z,14.00
2022-10-22T12:24:34.260Z,14.40
2022-10-22T12:28:11.858Z,14.50
2022-10-22T12:31:46.124Z,15.00
2022-10-22T12:35:20.636Z,14.60
2022-10-22T12:38:52.290Z,13.80
2022-10-22T12:42:25.329Z,14.03
2022-10-22T12:46:01.033Z,15.02
2022-10-22T12:49:41.688Z,14.13
2022-10-22T12:53:37.427Z,13.53
2022-10-22T12:57:16.544Z,14.00
2022-10-22T13:00:49.007Z,13.57
2022-10-22T13:04:31.381Z,12.60
2022-10-22T13:08:08.914Z,12.88
2022-10-22T13:11:48.537Z,13.53
2022-10-22T13:15:29.487Z,11.70
2022-10-22T13:19:01.561Z,13.05
2022-10-22T13:22:37.924Z,12.57
2022-10-22T13:26:16.726Z,12.17
2022-10-22T13:29:51.649Z,13.43
2022-10-22T13:33:30.068Z,13.13
2022-10-22T13:37:01.786Z,15.33
2022-10-22T13:40:33.617Z,14.20
2022-10-22T13:44:05.307Z,14.35
2022-10-22T13:47:37.211Z,15.20
2022-10-22T13:51:18.238Z,14.60
2022-10-22T13:54:50.116Z,15.10
2022-10-22T13:58:24.816Z,16.63
2022-10-22T14:01:57.090Z,15.43
2022-10-22T14:05:30.519Z,15.05
2022-10-22T14:09:06.248Z,15.13
2022-10-22T14:12:38.139Z,14.88
2022-10-22T14:16:17.268Z,15.70
2022-10-22T14:19:49.532Z,16.40
2022-10-22T14:23:24.133Z,15.47
2022-10-22T14:26:56.286Z,17.05
2022-10-22T14:30:30.248Z,16.13
2022-10-22T14:34:01.943Z,15.33
2022-10-22T14:37:33.844Z,15.37
2022-10-22T14:41:15.211Z,16.02
2022-10-22T14:44:47.178Z,14.60
2022-10-22T14:51:56.888Z,14.17
2022-10-22T14:55:29.107Z,14.38
2022-10-22T14:59:01.075Z,14.32
2022-10-22T15:02:32.868Z,12.32
2022-10-22T15:06:05.138Z,13.63
2022-10-22T15:09:36.798Z,14.13
2022-10-22T15:13:09.216Z,15.02
2022-10-22T15:16:41.526Z,13.93
2022-10-22T15:20:13.385Z,13.87
2022-10-22T15:23:45.167Z,12.85
2022-10-22T15:27:17.122Z,13.45
2022-10-22T15:31:00.944Z,12.98
2022-10-22T15:34:35.054Z,14.17
2022-10-22T15:38:09.256Z,12.80
2022-10-22T15:41:41.402Z,13.02
2022-10-22T15:45:13.178Z,15.27
2022-10-22T15:48:45.653Z,15.27
2022-10-22T15:52:17.405Z,15.20
2022-10-22T15:55:49.822Z,15.38
2022-10-22T15:59:21.830Z,15.75
2022-10-22T16:02:54.745Z,15.77
2022-10-22T16:06:27.834Z,15.70
2022-10-22T16:10:02.711Z,16.27
2022-10-22T16:13:36.894Z,15.48
2022-10-22T16:17:08.984Z,15.53
2022-10-22T16:20:41.761Z,16.23
2022-10-22T16:24:13.632Z,15.55
2022-10-22T16:27:49.409Z,16.57
2022-10-22T16:31:21.369Z,16.70
2022-10-22T16:34:53.400Z,15.45
2022-10-22T16:38:25.457Z,16.88
2022-10-22T16:41:57.073Z,16.08
2022-10-22T16:45:28.991Z,20.53
2022-10-22T16:49:00.783Z,16.85
2022-10-22T16:52:32.754Z,17.70
2022-10-22T16:56:04.876Z,17.47
2022-10-22T16:59:36.745Z,17.70
2022-10-22T17:03:11.735Z,17.40
2022-10-22T17:06:44.091Z,17.95
2022-10-22T17:10:16.936Z,18.95
2022-10-22T17:13:52.768Z,16.93
2022-10-22T17:17:24.602Z,18.85
2022-10-22T17:20:58.321Z,19.30
2022-10-22T17:24:30.131Z,19.60
2022-10-22T17:28:01.976Z,17.73
2022-10-22T17:31:38.456Z,17.40
2022-10-22T17:35:10.732Z,18.50
2022-10-22T17:38:43.945Z,18.53
2022-10-22T17:42:16.915Z,16.60
2022-10-22T17:45:48.815Z,16.20
2022-10-22T17:49:20.833Z,18.17
2022-10-22T17:52:52.906Z,18.37
2022-10-22T17:56:27.117Z,18.03
2022-10-22T17:59:58.774Z,20.02
2022-10-22T18:03:30.806Z,16.90
2022-10-22T18:07:02.493Z,17.97
2022-10-22T18:10:39.699Z,20.00
2022-10-22T18:14:11.403Z,16.25
2022-10-22T18:17:43.410Z,16.63
2022-10-22T18:21:16.912Z,15.97
2022-10-22T18:24:49.002Z,17.95
2022-10-22T18:28:20.729Z,17.70
2022-10-22T18:31:52.668Z,16.65
2022-10-22T18:35:24.387Z,17.33
2022-10-22T18:38:58.994Z,17.38
2022-10-22T18:42:33.582Z,18.67
2022-10-22T18:46:08.408Z,18.23
2022-10-22T18:49:40.167Z,17.93
2022-10-22T18:53:14.270Z,18.15
2022-10-22T18:56:46.178Z,18.35
2022-10-22T19:00:18.191Z,17.70
2022-10-22T19:03:50.778Z,18.57
2022-10-22T19:07:22.806Z,17.55
2022-10-22T19:10:54.560Z,18.33
2022-10-22T19:14:26.926Z,17.33
2022-10-22T19:17:58.570Z,17.00
2022-10-22T19:21:30.686Z,16.30
2022-10-22T19:25:02.375Z,16.85
2022-10-22T19:28:34.413Z,17.47
2022-10-22T19:35:38.194Z,15.88
2022-10-22T19:39:10.048Z,17.38
2022-10-22T19:42:44.266Z,17.67
2022-10-22T19:46:17.176Z,18.07
2022-10-22T19:49:49.055Z,17.38
2022-10-22T19:53:21.447Z,16.58
2022-10-22T19:56:53.821Z,16.17
2022-10-22T20:00:25.642Z,17.17
2022-10-22T20:03:57.767Z,17.40
2022-10-22T20:07:29.428Z,16.75
2022-10-22T20:11:02.282Z,16.00
2022-10-22T20:14:37.853Z,18.87
2022-10-22T20:18:10.234Z,17.33
2022-10-22T20:21:43.142Z,15.82
2022-10-22T20:25:15.620Z,16.50
2022-10-22T20:28:47.334Z,17.57
2022-10-22T20:32:19.281Z,19.63
2022-10-22T20:36:01.592Z,21.70
2022-10-22T20:39:33.529Z,22.80
2022-10-22T20:43:05.922Z,22.97
2022-10-22T20:46:39.633Z,25.35
2022-10-22T20:50:14.000Z,19.80
2022-10-22T20:53:45.959Z,24.43
2022-10-22T20:57:17.740Z,21.43
2022-10-22T21:00:50.110Z,20.90
2022-10-22T21:04:22.060Z,19.27
2022-10-22T21:07:53.896Z,19.37
2022-10-22T21:11:25.600Z,19.97
2022-10-22T21:14:57.505Z,20.27
2022-10-22T21:18:29.173Z,19.77
2022-10-22T21:22:01.298Z,20.70
2022-10-22T21:25:33.172Z,20.23
2022-10-22T21:29:05.022Z,19.80
2022-10-22T21:32:36.671Z,18.95
2022-10-22T21:36:09.172Z,21.20
2022-10-22T21:39:42.157Z,19.07
2022-10-22T21:43:15.130Z,19.20
2022-10-22T21:46:46.929Z,18.45
2022-10-22T21:50:18.919Z,18.63
2022-10-22T21:57:27.865Z,16.13
2022-10-22T22:01:00.642Z,17.10
2022-10-22T22:04:33.063Z,17.10
2022-10-22T22:08:04.881Z,20.97
2022-10-22T22:11:36.841Z,20.10
2022-10-22T22:15:08.916Z,19.55
2022-10-22T22:18:41.620Z,17.20
2022-10-22T22:22:13.281Z,18.50
2022-10-22T22:25:46.158Z,17.27
2022-10-22T22:29:18.058Z,18.02
2022-10-22T22:32:50.012Z,18.57
2022-10-22T22:36:21.633Z,17.00
2022-10-22T22:39:54.085Z,17.15
2022-10-22T22:43:25.825Z,17.63
2022-10-22T22:46:57.683Z,16.47
2022-10-22T22:50:29.387Z,15.43
2022-10-22T22:54:02.169Z,17.65
2022-10-22T22:57:35.280Z,13.23
2022-10-22T23:01:10.239Z,15.57
2022-10-22T23:04:42.003Z,17.83
2022-10-22T23:08:13.817Z,17.20
2022-10-22T23:11:46.510Z,18.00
2022-10-22T23:15:18.355Z,17.77
2022-10-22T23:18:50.793Z,17.27
2022-10-22T23:22:22.749Z,20.05
2022-10-22T23:25:56.014Z,20.58
2022-10-22T23:29:32.864Z,19.87
2022-10-22T23:33:04.523Z,19.08
2022-10-22T23:36:37.557Z,18.08
2022-10-22T23:40:09.846Z,18.23
2022-10-22T23:43:41.823Z,21.10
2022-10-22T23:47:13.462Z,21.15
2022-10-22T23:50:45.739Z,18.70
2022-10-22T23:54:18.552Z,20.87
2022-10-22T23:57:50.401Z,17.33
